Time;durP1;ratioP1;P1;durP2;ratioP2;P2;SDS_P1;SDS_P2;PMS_P1;PMS_P2;Temp;Humidity;BMP_temperature;BMP_pressure;BME280_temperature;BME280_humidity;BME280_pressure;Samples;Min_cycle;Max_cycle;Signal;HPM_P1;HPM_P2
2023/06/14 00:00:34;;;;;;;2.75;0.80;;;16.20;99.90;;;;;;5073516;28;20248;-90
2023/06/14 00:03:05;;;;;;;2.58;0.70;;;16.30;99.90;;;;;;5073194;28;20197;-91
2023/06/14 00:05:40;;;;;;;2.60;0.50;;;16.20;99.90;;;;;;5072326;28;20200;-92
2023/06/14 00:08:11;;;;;;;1.67;0.60;;;16.30;99.90;;;;;;5073214;28;20215;-91
2023/06/14 00:10:44;;;;;;;4.80;0.90;;;16.50;99.90;;;;;;5073037;28;20211;-90
2023/06/14 00:13:16;;;;;;;2.08;0.80;;;16.50;99.90;;;;;;5073846;28;20203;-91
2023/06/14 00:15:53;;;;;;;1.60;0.73;;;16.60;99.90;;;;;;5053096;28;20209;-91
2023/06/14 00:18:29;;;;;;;2.72;0.70;;;16.60;99.90;;;;;;5052901;28;20200;-92
2023/06/14 00:21:02;;;;;;;0.82;0.57;;;16.70;99.90;;;;;;5057000;28;20239;-91
2023/06/14 00:23:34;;;;;;;4.75;0.70;;;16.60;99.90;;;;;;5060721;28;20231;-91
2023/06/14 00:26:06;;;;;;;2.78;0.82;;;16.70;99.90;;;;;;5066941;28;20200;-91
2023/06/14 00:28:38;;;;;;;1.88;0.77;;;16.80;99.90;;;;;;5057124;28;20282;-90
2023/06/14 00:31:13;;;;;;;4.30;0.70;;;16.90;99.90;;;;;;5063804;28;20211;-90
2023/06/14 00:33:46;;;;;;;1.05;0.50;;;16.90;99.90;;;;;;5068250;28;20199;-90
2023/06/14 00:36:18;;;;;;;1.70;0.50;;;16.90;99.90;;;;;;5062733;28;20285;-89
2023/06/14 00:38:49;;;;;;;2.03;0.50;;;17.00;99.90;;;;;;5076075;28;20200;-92
2023/06/14 00:41:21;;;;;;;1.65;0.73;;;17.10;99.90;;;;;;5080337;28;20202;-93
2023/06/14 00:43:56;;;;;;;5.70;0.80;;;17.10;99.90;;;;;;5088021;28;20223;-91
2023/06/14 00:46:29;;;;;;;3.08;0.70;;;17.10;99.80;;;;;;5060054;28;20196;-90
2023/06/14 00:49:03;;;;;;;1.20;0.55;;;17.10;99.80;;;;;;5075477;28;20258;-86
2023/06/14 00:51:36;;;;;;;1.45;0.30;;;17.10;98.30;;;;;;5075055;28;20207;-89
2023/06/14 00:54:07;;;;;;;0.98;0.40;;;17.10;97.10;;;;;;5074783;28;20208;-87
2023/06/14 00:56:39;;;;;;;1.05;0.68;;;17.10;95.30;;;;;;5057917;28;20203;-87
2023/06/14 00:59:13;;;;;;;2.63;0.55;;;17.00;95.80;;;;;;5074148;28;20204;-87
2023/06/14 01:01:50;;;;;;;1.55;0.50;;;17.10;96.00;;;;;;5074438;28;20542;-87
2023/06/14 01:04:22;;;;;;;1.48;0.50;;;17.20;94.80;;;;;;5075002;28;20207;-90
2023/06/14 01:07:02;;;;;;;2.47;0.40;;;17.30;94.00;;;;;;5065435;28;20663;-89
2023/06/14 01:09:40;;;;;;;1.70;0.50;;;17.40;94.40;;;;;;5057474;28;20192;-89
2023/06/14 01:12:18;;;;;;;1.13;0.40;;;17.70;94.30;;;;;;5061164;28;20193;-88
2023/06/14 01:14:50;;;;;;;1.88;0.43;;;17.70;93.00;;;;;;5076738;28;20202;-88
2023/06/14 01:17:26;;;;;;;3.50;0.50;;;17.80;92.10;;;;;;5077814;28;20284;-82
2023/06/14 01:19:58;;;;;;;1.60;0.77;;;17.80;92.60;;;;;;5089608;28;20190;-89
2023/06/14 01:22:31;;;;;;;4.50;0.70;;;17.70;92.20;;;;;;5096849;28;20200;-88
2023/06/14 01:25:05;;;;;;;4.03;0.70;;;17.70;91.80;;;;;;5097311;28;20247;-91
2023/06/14 01:27:38;;;;;;;1.60;0.50;;;17.80;91.50;;;;;;5077236;28;20247;-90
2023/06/14 01:30:15;;;;;;;2.60;0.95;;;17.80;89.40;;;;;;5074643;28;20242;-89
2023/06/14 01:32:48;;;;;;;2.22;0.60;;;17.90;90.40;;;;;;5057992;28;20210;-88
2023/06/14 01:35:19;;;;;;;1.38;0.30;;;17.90;89.60;;;;;;5056822;28;20217;-89
2023/06/14 01:37:51;;;;;;;1.42;0.43;;;18.00;90.10;;;;;;5074688;28;20693;-89
2023/06/14 01:40:29;;;;;;;1.85;0.40;;;18.00;90.30;;;;;;5074591;28;20200;-89
2023/06/14 01:43:01;;;;;;;2.53;0.40;;;18.10;89.00;;;;;;5075397;28;20195;-88
2023/06/14 01:45:33;;;;;;;2.28;0.70;;;18.00;87.40;;;;;;5075192;28;20200;-89
2023/06/14 01:48:06;;;;;;;2.42;0.40;;;18.00;86.60;;;;;;5073405;28;20228;-89
2023/06/14 01:50:37;;;;;;;0.95;0.40;;;18.00;83.60;;;;;;5073739;28;20211;-89
2023/06/14 01:53:12;;;;;;;3.05;0.60;;;18.10;86.50;;;;;;5071204;28;20207;-89
2023/06/14 01:55:48;;;;;;;2.08;0.68;;;18.20;82.20;;;;;;5058053;28;20199;-89
2023/06/14 01:58:21;;;;;;;1.98;0.40;;;18.20;82.90;;;;;;5074973;28;20200;-91
2023/06/14 02:00:55;;;;;;;1.50;0.43;;;18.30;85.00;;;;;;5074232;28;20195;-90
2023/06/14 02:03:26;;;;;;;1.48;0.52;;;18.40;84.40;;;;;;5074136;28;20314;-90
2023/06/14 02:05:58;;;;;;;0.75;0.30;;;18.30;79.70;;;;;;5073980;28;20574;-90
2023/06/14 02:08:30;;;;;;;0.90;0.30;;;18.40;82.10;;;;;;5073879;28;20216;-89
2023/06/14 02:11:04;;;;;;;0.40;0.22;;;18.50;80.50;;;;;;5073444;28;20204;-90
2023/06/14 02:13:37;;;;;;;1.52;0.45;;;18.70;81.20;;;;;;5073567;28;20199;-90
2023/06/14 02:16:08;;;;;;;1.38;0.40;;;18.70;77.70;;;;;;5072881;28;20208;-90
2023/06/14 02:18:40;;;;;;;2.83;0.90;;;18.50;76.20;;;;;;5072555;28;20297;-89
2023/06/14 02:21:15;;;;;;;1.73;1.10;;;18.50;76.80;;;;;;5073317;28;20199;-89
2023/06/14 02:23:47;;;;;;;1.13;0.55;;;18.50;75.90;;;;;;5073905;28;20206;-89
2023/06/14 02:26:21;;;;;;;1.23;0.30;;;18.50;75.40;;;;;;5074454;28;20662;-89
2023/06/14 02:28:53;;;;;;;2.92;0.40;;;18.50;75.00;;;;;;5073677;28;20227;-89
2023/06/14 02:31:25;;;;;;;1.35;0.52;;;18.60;74.70;;;;;;5074105;28;20285;-88
2023/06/14 02:33:59;;;;;;;2.85;0.60;;;18.70;74.30;;;;;;5073478;28;20203;-89
2023/06/14 02:36:30;;;;;;;0.70;0.40;;;18.70;72.80;;;;;;5074121;28;20196;-89
2023/06/14 02:39:01;;;;;;;2.05;1.10;;;18.80;74.30;;;;;;5073471;28;20650;-89
2023/06/14 02:41:40;;;;;;;1.15;1.02;;;18.80;69.70;;;;;;5073850;28;20199;-90
2023/06/14 02:44:13;;;;;;;3.30;0.70;;;18.80;65.90;;;;;;5056613;28;20195;-86
2023/06/14 02:46:45;;;;;;;2.90;0.65;;;18.70;64.70;;;;;;5073238;28;20226;-90
2023/06/14 02:49:16;;;;;;;3.78;0.70;;;18.70;63.90;;;;;;5074418;28;20315;-88
2023/06/14 02:51:47;;;;;;;3.05;0.73;;;18.60;62.40;;;;;;5079766;28;20231;-87
2023/06/14 02:54:18;;;;;;;3.45;0.55;;;18.60;61.80;;;;;;5073455;28;20579;-88
2023/06/14 02:56:55;;;;;;;2.08;0.60;;;18.50;62.30;;;;;;5074667;28;20202;-88
2023/06/14 02:59:27;;;;;;;2.78;0.40;;;18.50;61.70;;;;;;5073927;28;20188;-87
2023/06/14 03:01:58;;;;;;;3.25;0.60;;;18.60;61.70;;;;;;5072947;28;20663;-87
2023/06/14 03:04:36;;;;;;;1.80;0.55;;;18.60;61.30;;;;;;5074587;28;20204;-84
2023/06/14 03:07:08;;;;;;;1.70;0.47;;;18.80;60.70;;;;;;5071704;28;20206;-85
2023/06/14 03:09:40;;;;;;;2.85;0.40;;;18.80;60.10;;;;;;5070695;28;20283;-84
2023/06/14 03:12:14;;;;;;;3.72;0.65;;;18.80;60.10;;;;;;5072360;28;20694;-85
2023/06/14 03:14:45;;;;;;;1.60;0.63;;;18.70;58.20;;;;;;5054009;28;20192;-85
2023/06/14 03:17:19;;;;;;;1.88;0.55;;;18.80;57.70;;;;;;5073617;28;20206;-85
2023/06/14 03:19:51;;;;;;;2.38;0.70;;;18.80;58.40;;;;;;5073618;28;20660;-85
2023/06/14 03:22:22;;;;;;;2.58;1.00;;;18.90;58.30;;;;;;5073203;28;20206;-86
2023/06/14 03:24:53;;;;;;;2.78;1.17;;;18.80;58.70;;;;;;5077867;28;20200;-85
2023/06/14 03:27:28;;;;;;;1.85;0.90;;;18.80;58.30;;;;;;5072431;28;20199;-85
2023/06/14 03:29:59;;;;;;;0.98;0.70;;;18.90;59.40;;;;;;5071382;28;20318;-85
2023/06/14 03:32:33;;;;;;;2.45;0.68;;;18.90;58.80;;;;;;5071838;28;20203;-85
2023/06/14 03:35:04;;;;;;;3.10;0.60;;;19.00;59.10;;;;;;5071958;28;20216;-85
2023/06/14 03:37:35;;;;;;;3.63;1.90;;;19.10;58.70;;;;;;5071510;28;20576;-84
2023/06/14 03:40:08;;;;;;;4.38;1.13;;;19.00;55.80;;;;;;5071292;28;20253;-84
2023/06/14 03:42:43;;;;;;;2.67;0.88;;;18.90;54.90;;;;;;5070299;28;20192;-84
2023/06/14 03:45:15;;;;;;;2.15;0.95;;;18.70;55.20;;;;;;5072211;28;20210;-84
2023/06/14 03:47:46;;;;;;;1.30;0.40;;;18.90;56.50;;;;;;5072109;28;20223;-82
2023/06/14 03:50:18;;;;;;;1.95;0.63;;;19.00;56.50;;;;;;5069972;28;20200;-85
2023/06/14 03:52:50;;;;;;;1.48;0.50;;;19.00;56.00;;;;;;5051173;28;20203;-85
2023/06/14 03:55:25;;;;;;;4.15;0.65;;;19.10;56.50;;;;;;5063236;28;20203;-84
2023/06/14 03:57:58;;;;;;;1.77;0.80;;;19.10;56.80;;;;;;5073856;28;20218;-84
2023/06/14 04:00:29;;;;;;;1.70;0.50;;;19.10;56.40;;;;;;5075194;28;20195;-85
2023/06/14 04:03:00;;;;;;;1.52;0.50;;;19.10;56.20;;;;;;5075169;28;20584;-84
2023/06/14 04:05:31;;;;;;;1.27;0.43;;;19.00;53.30;;;;;;5074960;28;20575;-83
2023/06/14 04:08:03;;;;;;;2.97;0.60;;;18.90;53.30;;;;;;5075454;28;20582;-82
2023/06/14 04:10:34;;;;;;;2.08;0.60;;;18.80;53.10;;;;;;5076873;28;20188;-83
2023/06/14 04:13:11;;;;;;;5.10;0.70;;;18.70;53.50;;;;;;5075253;28;20196;-83
2023/06/14 04:15:45;;;;;;;3.00;0.70;;;18.70;53.00;;;;;;5074940;28;20593;-85
2023/06/14 04:18:16;;;;;;;1.38;0.35;;;18.80;52.50;;;;;;5076994;28;20210;-84
2023/06/14 04:20:48;;;;;;;2.70;0.47;;;18.80;52.60;;;;;;5075078;28;20196;-85
2023/06/14 04:23:23;;;;;;;1.38;0.70;;;18.70;53.40;;;;;;5074638;28;20566;-82
2023/06/14 04:26:01;;;;;;;4.15;0.80;;;18.70;53.90;;;;;;5075389;28;20275;-86
2023/06/14 04:28:37;;;;;;;5.95;0.50;;;18.60;52.80;;;;;;5060181;28;20274;-85
2023/06/14 04:31:08;;;;;;;0.50;0.38;;;18.60;52.10;;;;;;5076331;28;20200;-83
2023/06/14 04:33:43;;;;;;;2.08;0.60;;;18.60;52.70;;;;;;5055693;28;20208;-85
2023/06/14 04:36:17;;;;;;;2.72;0.50;;;18.60;52.60;;;;;;5055281;28;20641;-85
2023/06/14 04:38:51;;;;;;;1.40;0.47;;;18.70;53.10;;;;;;5055332;28;20570;-85
2023/06/14 04:41:28;;;;;;;3.92;0.80;;;18.80;54.00;;;;;;5055357;28;20205;-85
2023/06/14 04:44:02;;;;;;;2.42;0.70;;;18.90;54.40;;;;;;5054617;28;20200;-86
2023/06/14 04:46:45;;;;;;;1.08;0.30;;;18.90;55.00;;;;;;5065268;28;20629;-86
2023/06/14 04:49:17;;;;;;;3.88;0.55;;;18.80;54.10;;;;;;5074094;28;20273;-87
2023/06/14 04:51:50;;;;;;;1.80;0.50;;;18.90;53.70;;;;;;5076390;28;20196;-84
2023/06/14 04:54:21;;;;;;;1.35;0.57;;;18.90;53.90;;;;;;5078842;28;20214;-86
2023/06/14 04:56:53;;;;;;;2.92;0.70;;;18.80;53.30;;;;;;5075980;28;20192;-88
2023/06/14 04:59:35;;;;;;;5.65;1.30;;;18.80;53.00;;;;;;5078042;28;20204;-85
2023/06/14 05:02:12;;;;;;;6.35;2.15;;;18.80;53.60;;;;;;5058033;28;20200;-87
2023/06/14 05:04:47;;;;;;;2.95;0.70;;;18.90;53.10;;;;;;5041786;28;20246;-86
2023/06/14 05:07:18;;;;;;;1.30;0.70;;;18.80;53.30;;;;;;5076478;28;20235;-86
2023/06/14 05:09:49;;;;;;;0.80;0.40;;;18.90;52.60;;;;;;5074815;28;20227;-87
2023/06/14 05:12:21;;;;;;;1.80;0.50;;;18.80;52.50;;;;;;5075861;28;20204;-86
2023/06/14 05:14:54;;;;;;;3.35;0.65;;;18.80;52.60;;;;;;5075992;28;20202;-87
2023/06/14 05:17:27;;;;;;;2.42;0.90;;;18.80;52.60;;;;;;5075467;28;20685;-87
2023/06/14 05:19:58;;;;;;;1.42;0.50;;;18.70;52.30;;;;;;5075533;28;20212;-86
2023/06/14 05:22:29;;;;;;;1.77;0.70;;;18.70;52.20;;;;;;5075373;28;20211;-85
2023/06/14 05:25:02;;;;;;;3.22;0.70;;;18.80;52.80;;;;;;5077053;28;20207;-86
2023/06/14 05:27:35;;;;;;;1.38;0.60;;;18.80;54.00;;;;;;5075372;28;20200;-85
2023/06/14 05:30:09;;;;;;;2.60;0.75;;;18.90;53.60;;;;;;5075773;28;20237;-86
2023/06/14 05:32:40;;;;;;;2.60;0.68;;;18.70;53.70;;;;;;5075278;28;20214;-85
2023/06/14 05:35:12;;;;;;;1.08;0.50;;;18.70;53.90;;;;;;5075160;28;20563;-86
2023/06/14 05:37:43;;;;;;;1.15;0.50;;;18.80;53.90;;;;;;5075104;28;20236;-85
2023/06/14 05:40:16;;;;;;;3.92;0.80;;;18.70;53.60;;;;;;5073997;28;20282;-85
2023/06/14 05:42:50;;;;;;;1.67;0.57;;;18.70;53.40;;;;;;5073486;28;20679;-86
2023/06/14 05:45:23;;;;;;;2.10;0.60;;;18.70;52.50;;;;;;5073966;28;20245;-84
2023/06/14 05:47:54;;;;;;;2.45;0.68;;;18.50;52.20;;;;;;5067015;28;20199;-83
2023/06/14 05:50:25;;;;;;;1.13;0.60;;;18.60;52.80;;;;;;5080629;28;20313;-83
2023/06/14 05:52:57;;;;;;;2.05;0.50;;;18.60;52.30;;;;;;5093905;28;20183;-84
2023/06/14 05:55:30;;;;;;;1.95;0.70;;;18.50;52.30;;;;;;5074353;28;20232;-84
2023/06/14 05:58:02;;;;;;;2.75;0.50;;;18.60;52.30;;;;;;5073142;28;20191;-83
2023/06/14 06:00:38;;;;;;;2.50;0.68;;;18.60;52.40;;;;;;5074615;28;20725;-84
2023/06/14 06:03:11;;;;;;;0.77;0.50;;;18.60;52.70;;;;;;5074967;28;20200;-86
2023/06/14 06:05:42;;;;;;;2.28;0.60;;;18.50;52.60;;;;;;5079420;28;20200;-87
2023/06/14 06:08:13;;;;;;;2.08;0.70;;;18.50;53.50;;;;;;5087285;28;20283;-87
2023/06/14 06:10:44;;;;;;;1.98;0.60;;;18.40;53.10;;;;;;5088698;28;20180;-86
2023/06/14 06:13:15;;;;;;;3.13;0.63;;;18.40;53.40;;;;;;5092277;28;20203;-87
2023/06/14 06:15:50;;;;;;;1.33;0.77;;;18.40;53.30;;;;;;5091949;28;20257;-87
2023/06/14 06:18:23;;;;;;;1.60;0.70;;;18.30;54.30;;;;;;5090856;28;20205;-87
2023/06/14 06:20:57;;;;;;;1.85;0.50;;;18.40;54.20;;;;;;5078672;28;20307;-88
2023/06/14 06:23:28;;;;;;;2.72;0.80;;;18.50;53.10;;;;;;5074049;28;20256;-86
2023/06/14 06:25:59;;;;;;;1.52;0.70;;;18.40;52.90;;;;;;5072930;28;20204;-88
2023/06/14 06:28:31;;;;;;;2.53;0.77;;;18.50;53.40;;;;;;5073207;28;20650;-88
2023/06/14 06:31:07;;;;;;;1.77;0.90;;;18.30;54.20;;;;;;5074197;28;20204;-87
2023/06/14 06:33:39;;;;;;;1.45;0.63;;;18.20;54.30;;;;;;5073507;28;20654;-86
2023/06/14 06:36:10;;;;;;;2.75;0.75;;;18.20;55.10;;;;;;5073493;28;20219;-87
2023/06/14 06:38:41;;;;;;;4.43;0.98;;;18.10;55.00;;;;;;5073036;28;20199;-88
2023/06/14 06:41:14;;;;;;;3.47;0.90;;;18.10;55.00;;;;;;5073248;28;20208;-88
2023/06/14 06:43:46;;;;;;;2.10;0.90;;;18.00;55.50;;;;;;5072688;28;20203;-88
2023/06/14 06:46:21;;;;;;;1.70;0.80;;;17.90;55.20;;;;;;5069357;28;20205;-88
2023/06/14 06:48:52;;;;;;;5.13;0.82;;;17.80;55.40;;;;;;5054763;28;20224;-88
2023/06/14 06:51:23;;;;;;;2.85;0.80;;;17.80;54.80;;;;;;5072934;28;20203;-88
2023/06/14 06:53:57;;;;;;;4.47;0.90;;;17.70;54.20;;;;;;5073308;28;20195;-87
2023/06/14 06:56:28;;;;;;;2.92;0.60;;;17.70;54.20;;;;;;5079376;28;20206;-86
2023/06/14 06:59:00;;;;;;;3.50;1.00;;;17.50;54.30;;;;;;5076182;28;20204;-86
2023/06/14 07:01:38;;;;;;;1.48;0.70;;;17.50;54.60;;;;;;5074276;28;20635;-86
2023/06/14 07:04:10;;;;;;;2.22;0.70;;;17.50;55.00;;;;;;5056134;28;20199;-87
2023/06/14 07:06:40;;;;;;;3.15;0.98;;;17.60;55.90;;;;;;5073910;28;20195;-87
2023/06/14 07:09:14;;;;;;;2.42;1.20;;;17.50;55.80;;;;;;5073774;28;20234;-87
2023/06/14 07:11:46;;;;;;;2.35;1.40;;;17.40;55.80;;;;;;5073503;28;20574;-87
2023/06/14 07:14:18;;;;;;;3.80;1.90;;;17.30;55.70;;;;;;5072829;28;20547;-88
2023/06/14 07:16:53;;;;;;;8.23;1.90;;;17.30;56.20;;;;;;5062287;28;20208;-86
2023/06/14 07:19:24;;;;;;;3.25;1.20;;;17.30;56.10;;;;;;5073204;28;20345;-88
2023/06/14 07:21:56;;;;;;;2.67;1.13;;;17.20;56.60;;;;;;5073256;28;20202;-87
2023/06/14 07:24:28;;;;;;;4.20;1.20;;;17.10;57.40;;;;;;5071894;28;20735;-87
2023/06/14 07:27:01;;;;;;;2.60;1.10;;;17.00;57.80;;;;;;5074681;28;20196;-87
2023/06/14 07:29:34;;;;;;;3.97;1.67;;;17.00;58.20;;;;;;5076124;28;20318;-86
2023/06/14 07:32:08;;;;;;;2.30;1.00;;;17.00;58.50;;;;;;5076408;28;20199;-87
2023/06/14 07:34:40;;;;;;;3.88;1.40;;;16.90;58.00;;;;;;5058244;28;20219;-87
2023/06/14 07:37:11;;;;;;;4.18;0.88;;;16.90;59.00;;;;;;5076373;28;20196;-87
2023/06/14 07:39:45;;;;;;;5.05;1.10;;;16.90;58.50;;;;;;5077254;28;20196;-86
2023/06/14 07:42:16;;;;;;;3.55;1.38;;;16.80;58.00;;;;;;5077204;28;20196;-87
2023/06/14 07:44:52;;;;;;;2.35;1.20;;;16.70;58.20;;;;;;5072348;28;20200;-85
2023/06/14 07:47:25;;;;;;;1.73;1.02;;;16.60;58.40;;;;;;5057159;28;20576;-85
2023/06/14 07:49:56;;;;;;;2.78;0.90;;;16.60;58.80;;;;;;5073209;28;20236;-87
2023/06/14 07:52:27;;;;;;;2.17;1.02;;;16.60;58.90;;;;;;5077456;28;20206;-86
2023/06/14 07:54:57;;;;;;;2.50;0.88;;;16.50;59.30;;;;;;5076387;28;20628;-86
2023/06/14 07:57:29;;;;;;;3.67;1.10;;;16.50;59.00;;;;;;5076642;28;20207;-86
2023/06/14 07:59:59;;;;;;;3.42;1.50;;;16.50;59.40;;;;;;5076041;28;20257;-85
2023/06/14 08:02:32;;;;;;;1.63;1.00;;;16.30;59.60;;;;;;5076161;28;20200;-85
2023/06/14 08:05:04;;;;;;;3.42;1.15;;;16.20;60.20;;;;;;5075445;28;20200;-85
2023/06/14 08:07:35;;;;;;;1.13;0.70;;;16.30;60.70;;;;;;5075967;28;20196;-86
2023/06/14 08:10:06;;;;;;;3.65;1.27;;;16.20;60.90;;;;;;5076118;28;20325;-86
2023/06/14 08:12:37;;;;;;;5.10;1.65;;;16.30;60.80;;;;;;5077160;28;20196;-86
2023/06/14 08:15:09;;;;;;;2.67;1.30;;;16.20;61.20;;;;;;5075860;28;20206;-85
2023/06/14 08:17:44;;;;;;;2.63;1.02;;;16.20;61.60;;;;;;5075735;28;20683;-86
2023/06/14 08:20:19;;;;;;;3.42;1.20;;;16.20;61.70;;;;;;5074782;28;20227;-86
2023/06/14 08:22:55;;;;;;;2.38;1.15;;;16.20;62.30;;;;;;5076900;28;20203;-85
2023/06/14 08:25:25;;;;;;;1.83;1.20;;;16.10;62.50;;;;;;5073144;28;20203;-86
2023/06/14 08:27:56;;;;;;;2.45;1.20;;;15.90;63.60;;;;;;5080606;28;20208;-86
2023/06/14 08:30:27;;;;;;;2.35;1.05;;;15.90;64.20;;;;;;5074689;28;20652;-85
2023/06/14 08:33:01;;;;;;;2.95;1.30;;;15.90;64.40;;;;;;5075182;28;20196;-86
2023/06/14 08:35:32;;;;;;;4.22;1.20;;;15.90;64.50;;;;;;5058647;28;20257;-86
2023/06/14 08:38:03;;;;;;;3.60;1.40;;;15.90;64.60;;;;;;5075799;28;20279;-86
2023/06/14 08:40:39;;;;;;;3.05;1.75;;;15.90;65.00;;;;;;5074003;28;20195;-85
2023/06/14 08:43:10;;;;;;;9.77;3.83;;;15.90;65.20;;;;;;5075243;28;20616;-86
2023/06/14 08:45:41;;;;;;;7.28;3.13;;;15.90;65.80;;;;;;5064849;28;20597;-87
2023/06/14 08:48:17;;;;;;;3.92;2.20;;;16.00;65.90;;;;;;5057879;28;20648;-86
2023/06/14 08:50:50;;;;;;;4.68;2.50;;;16.00;67.00;;;;;;5054982;28;20224;-86
2023/06/14 08:53:21;;;;;;;6.85;3.33;;;15.90;67.40;;;;;;5054724;28;20729;-85
2023/06/14 08:55:53;;;;;;;3.88;1.70;;;16.00;66.70;;;;;;5056995;28;20231;-85
2023/06/14 08:58:24;;;;;;;5.22;1.60;;;15.90;66.70;;;;;;5065299;28;20192;-85
2023/06/14 09:00:55;;;;;;;3.47;1.27;;;15.90;67.20;;;;;;5060424;28;20200;-85
2023/06/14 09:03:30;;;;;;;2.70;1.50;;;15.90;67.40;;;;;;5059506;28;20239;-85
2023/06/14 09:06:03;;;;;;;3.67;1.35;;;15.80;68.50;;;;;;5054464;28;20214;-86
2023/06/14 09:08:35;;;;;;;4.85;1.25;;;15.80;68.70;;;;;;5054485;28;20288;-84
2023/06/14 09:11:06;;;;;;;2.30;1.00;;;15.90;68.70;;;;;;5054812;28;20217;-85
2023/06/14 09:13:37;;;;;;;1.85;0.90;;;15.70;69.00;;;;;;5075942;28;20195;-85
2023/06/14 09:16:09;;;;;;;2.05;1.10;;;15.60;68.30;;;;;;5074495;28;20194;-85
2023/06/14 09:18:47;;;;;;;2.20;0.90;;;15.50;69.50;;;;;;5070050;28;20200;-85
2023/06/14 09:21:20;;;;;;;3.20;0.80;;;15.40;70.00;;;;;;5055718;28;20310;-85
2023/06/14 09:23:52;;;;;;;1.15;0.70;;;15.30;70.00;;;;;;5053821;28;20254;-85
2023/06/14 09:26:23;;;;;;;2.80;1.25;;;15.30;70.50;;;;;;5073229;28;20322;-85
2023/06/14 09:28:55;;;;;;;1.83;0.82;;;15.30;70.60;;;;;;5073875;28;20320;-86
2023/06/14 09:31:29;;;;;;;3.83;1.30;;;15.20;70.50;;;;;;5067657;28;20224;-86
2023/06/14 09:34:04;;;;;;;2.00;0.93;;;15.20;70.80;;;;;;5053711;28;20616;-85
2023/06/14 09:36:38;;;;;;;3.35;0.90;;;15.30;70.40;;;;;;5072433;28;20382;-86
2023/06/14 09:39:09;;;;;;;1.63;0.88;;;15.20;71.10;;;;;;5066951;28;20204;-86
2023/06/14 09:41:40;;;;;;;2.95;0.88;;;15.20;70.20;;;;;;5055052;28;20660;-85
2023/06/14 09:44:12;;;;;;;3.20;1.05;;;15.20;70.60;;;;;;5058183;28;20220;-85
2023/06/14 09:46:43;;;;;;;2.30;1.10;;;15.10;70.50;;;;;;5053004;28;20283;-87
2023/06/14 09:49:16;;;;;;;4.20;1.20;;;15.20;71.50;;;;;;5053012;28;20224;-87
2023/06/14 09:51:49;;;;;;;3.03;1.00;;;15.20;70.70;;;;;;5059925;28;20196;-87
2023/06/14 09:54:24;;;;;;;2.42;1.08;;;15.10;70.80;;;;;;5071657;28;20632;-86
2023/06/14 09:56:58;;;;;;;7.72;3.60;;;15.10;71.00;;;;;;5073362;28;20207;-85
2023/06/14 09:59:31;;;;;;;4.15;1.83;;;15.10;71.20;;;;;;5072660;28;20275;-84
2023/06/14 10:02:09;;;;;;;5.28;2.95;;;15.00;71.60;;;;;;5079330;28;20219;-84
2023/06/14 10:04:47;;;;;;;7.00;2.90;;;15.00;71.80;;;;;;5071431;28;20192;-84
2023/06/14 10:07:23;;;;;;;4.00;1.30;;;15.00;72.50;;;;;;5068210;28;20191;-84
2023/06/14 10:09:55;;;;;;;3.30;1.90;;;15.00;72.90;;;;;;5087639;28;20242;-85
2023/06/14 10:12:26;;;;;;;2.35;1.13;;;15.00;73.00;;;;;;5094255;28;20186;-84
2023/06/14 10:14:57;;;;;;;3.28;1.10;;;15.00;73.20;;;;;;5096237;28;20200;-85
2023/06/14 10:17:35;;;;;;;5.22;1.73;;;15.00;73.80;;;;;;5076988;28;20192;-85
2023/06/14 10:20:24;;;;;;;3.85;1.25;;;14.90;73.70;;;;;;5094429;28;20210;-83
2023/06/14 10:23:02;;;;;;;3.33;1.17;;;15.00;73.60;;;;;;5089459;28;20200;-85
2023/06/14 10:25:34;;;;;;;3.83;1.08;;;15.00;74.10;;;;;;5077534;28;20200;-84
2023/06/14 10:28:22;;;;;;;3.67;1.13;;;14.90;74.50;;;;;;5075974;28;20260;-84
2023/06/14 10:31:07;;;;;;;2.58;1.30;;;14.90;74.90;;;;;;5035399;28;20213;-84
2023/06/14 10:33:38;;;;;;;1.00;0.70;;;14.90;75.00;;;;;;5035823;28;20211;-84
2023/06/14 10:36:30;;;;;;;1.15;0.70;;;14.80;75.70;;;;;;5028366;28;20737;-83
2023/06/14 10:39:08;;;;;;;1.15;0.70;;;14.70;76.50;;;;;;5033943;28;20209;-84
2023/06/14 10:41:53;;;;;;;2.55;1.08;;;14.70;77.00;;;;;;5035060;28;20231;-83
2023/06/14 10:44:56;;;;;;;3.83;1.65;;;14.70;77.60;;;;;;5034756;28;20279;-84
2023/06/14 10:47:29;;;;;;;3.85;1.58;;;14.60;78.30;;;;;;5030903;28;20656;-83
2023/06/14 10:50:05;;;;;;;2.30;1.30;;;14.70;78.70;;;;;;5030394;28;20285;-84
2023/06/14 10:52:41;;;;;;;3.03;1.20;;;14.60;78.60;;;;;;5043592;28;20205;-83
2023/06/14 10:55:14;;;;;;;2.40;1.20;;;14.60;78.90;;;;;;5032871;28;20337;-84
2023/06/14 10:57:51;;;;;;;4.38;1.42;;;14.60;79.30;;;;;;5042610;28;20193;-84
2023/06/14 11:00:29;;;;;;;1.30;1.00;;;14.60;79.40;;;;;;5042794;28;20209;-83
2023/06/14 11:03:33;;;;;;;2.20;0.90;;;14.60;79.60;;;;;;5032625;28;20197;-84
2023/06/14 11:06:14;;;;;;;2.78;1.50;;;14.60;79.80;;;;;;5043526;28;20256;-84
2023/06/14 11:09:22;;;;;;;2.30;1.20;;;14.60;80.90;;;;;;5046466;28;20197;-83
2023/06/14 11:11:56;;;;;;;3.33;1.30;;;14.50;81.80;;;;;;5039607;28;20249;-84
2023/06/14 11:14:30;;;;;;;2.72;1.15;;;14.50;83.10;;;;;;5039771;28;20208;-84
2023/06/14 11:17:02;;;;;;;2.97;1.08;;;14.40;84.20;;;;;;5038155;28;20606;-82
2023/06/14 11:19:36;;;;;;;2.97;0.80;;;14.30;84.70;;;;;;5042513;28;20216;-86
2023/06/14 11:22:07;;;;;;;2.13;0.93;;;14.30;85.30;;;;;;5055946;28;20356;-84
2023/06/14 11:24:42;;;;;;;1.50;0.98;;;14.40;85.70;;;;;;5038730;28;20209;-83
2023/06/14 11:27:13;;;;;;;1.80;0.82;;;14.40;87.10;;;;;;5037733;28;20283;-84
2023/06/14 11:29:53;;;;;;;2.33;1.00;;;14.30;87.50;;;;;;5061755;28;20302;-83
2023/06/14 11:32:26;;;;;;;3.55;1.08;;;14.30;88.80;;;;;;5077713;28;20319;-83
2023/06/14 11:34:59;;;;;;;3.58;0.90;;;14.20;89.20;;;;;;5077511;28;20298;-84
2023/06/14 11:37:31;;;;;;;3.85;1.00;;;14.10;90.40;;;;;;5077701;28;20602;-83
2023/06/14 11:40:08;;;;;;;2.47;1.20;;;14.00;90.50;;;;;;5076101;28;20219;-85
2023/06/14 11:42:39;;;;;;;2.30;1.13;;;14.00;90.80;;;;;;5077118;28;20191;-83
2023/06/14 11:45:13;;;;;;;1.45;0.88;;;14.00;91.10;;;;;;5077035;28;20258;-84
2023/06/14 11:47:44;;;;;;;4.35;1.10;;;14.10;91.30;;;;;;5084389;28;20230;-83
2023/06/14 11:50:24;;;;;;;4.68;1.00;;;14.10;91.60;;;;;;5080074;28;20244;-85
2023/06/14 11:52:59;;;;;;;1.90;0.82;;;14.10;92.00;;;;;;5067418;28;20225;-84
2023/06/14 11:55:34;;;;;;;4.82;1.10;;;14.00;92.10;;;;;;5061318;28;20225;-84
2023/06/14 11:58:06;;;;;;;3.25;1.15;;;14.00;92.70;;;;;;5061610;28;20228;-84
2023/06/14 12:00:39;;;;;;;3.92;0.70;;;13.90;92.70;;;;;;5073509;28;20287;-82
2023/06/14 12:03:12;;;;;;;3.00;1.00;;;13.90;93.00;;;;;;5078248;28;20204;-82
2023/06/14 12:05:43;;;;;;;2.35;0.93;;;13.80;93.80;;;;;;5065240;28;20204;-85
2023/06/14 12:08:17;;;;;;;1.98;0.90;;;13.80;94.50;;;;;;5061125;28;20296;-83
2023/06/14 12:10:55;;;;;;;3.22;0.80;;;13.80;94.20;;;;;;5073149;28;20219;-83
2023/06/14 12:13:29;;;;;;;4.95;0.88;;;13.90;94.80;;;;;;5078250;28;20647;-81
2023/06/14 12:16:01;;;;;;;1.90;0.93;;;13.80;95.30;;;;;;5080930;28;20203;-83
2023/06/14 12:18:39;;;;;;;2.53;0.85;;;13.90;95.20;;;;;;5083195;28;20217;-83
2023/06/14 12:21:11;;;;;;;2.70;1.00;;;13.90;95.40;;;;;;5081535;28;20194;-83
2023/06/14 12:23:51;;;;;;;2.95;0.93;;;13.70;96.30;;;;;;5065885;28;20677;-83
2023/06/14 12:26:24;;;;;;;3.22;0.70;;;13.70;97.30;;;;;;5080884;28;20202;-83
2023/06/14 12:28:58;;;;;;;4.18;0.80;;;13.80;98.20;;;;;;5080879;28;20343;-83
2023/06/14 12:31:29;;;;;;;1.95;0.73;;;13.80;98.40;;;;;;5072553;28;20220;-82
2023/06/14 12:34:00;;;;;;;2.63;0.82;;;13.80;99.10;;;;;;5061069;28;20211;-82
2023/06/14 12:36:32;;;;;;;1.17;0.60;;;13.80;98.60;;;;;;5058570;28;20231;-83
2023/06/14 12:39:08;;;;;;;4.45;1.15;;;13.80;98.80;;;;;;5074285;28;20196;-84
2023/06/14 12:41:52;;;;;;;1.58;0.65;;;13.80;98.60;;;;;;5088426;28;20233;-82
2023/06/14 12:44:24;;;;;;;2.08;0.77;;;13.80;98.70;;;;;;5080367;28;20226;-83
2023/06/14 12:46:55;;;;;;;2.25;0.77;;;13.80;98.90;;;;;;5081982;28;20187;-82
2023/06/14 12:49:26;;;;;;;4.03;0.95;;;13.80;99.20;;;;;;5082988;28;20701;-82
2023/06/14 12:52:00;;;;;;;5.78;1.00;;;13.70;99.70;;;;;;5080933;28;20216;-83
2023/06/14 12:54:31;;;;;;;1.13;0.70;;;13.80;99.90;;;;;;5081448;28;20219;-83
2023/06/14 12:57:03;;;;;;;1.98;0.75;;;13.80;99.90;;;;;;5077022;28;20663;-83
2023/06/14 12:59:35;;;;;;;3.22;0.70;;;13.80;99.90;;;;;;5070900;28;20739;-82
2023/06/14 13:02:16;;;;;;;3.55;0.70;;;13.80;99.90;;;;;;5066804;28;20261;-82
2023/06/14 13:04:47;;;;;;;1.70;0.70;;;13.80;99.90;;;;;;5059549;28;20184;-83
2023/06/14 13:07:22;;;;;;;3.17;0.85;;;13.60;99.90;;;;;;5059501;28;20200;-83
2023/06/14 13:09:55;;;;;;;5.55;0.90;;;13.70;99.90;;;;;;5064917;28;20204;-83
2023/06/14 13:12:31;;;;;;;3.90;0.80;;;13.60;99.90;;;;;;5062630;28;20284;-82
2023/06/14 13:15:02;;;;;;;3.17;0.70;;;13.50;99.90;;;;;;5061589;28;20195;-83
2023/06/14 13:17:38;;;;;;;2.08;0.75;;;13.50;99.90;;;;;;5072755;28;20766;-82
2023/06/14 13:20:35;;;;;;;1.50;0.60;;;13.40;99.90;;;;;;5064992;28;20196;-81